Time;durP1;ratioP1;P1;durP2;ratioP2;P2;SDS_P1;SDS_P2;PMS_P1;PMS_P2;Temp;Humidity;BMP_temperature;BMP_pressure;BME280_temperature;BME280_humidity;BME280_pressure;Samples;Min_cycle;Max_cycle;Signal;HPM_P1;HPM_P2
2022/03/12 00:01:19;;;;;;;3.50;2.80;;;3.80;99.90;;;;;;5031946;28;20392;-74
2022/03/12 00:03:47;;;;;;;7.32;3.33;;;3.80;99.90;;;;;;5032020;28;20040;-74
2022/03/12 00:06:13;;;;;;;3.83;2.88;;;3.80;99.90;;;;;;5031832;28;20100;-74
2022/03/12 00:08:43;;;;;;;4.18;2.88;;;3.70;99.90;;;;;;5031974;28;20444;-74
2022/03/12 00:11:15;;;;;;;4.57;2.70;;;3.60;99.90;;;;;;5031653;28;20022;-74
2022/03/12 00:13:41;;;;;;;5.00;2.85;;;3.60;99.90;;;;;;5031986;28;20376;-74
2022/03/12 00:16:14;;;;;;;3.60;3.00;;;3.50;99.90;;;;;;5030321;28;20080;-74
2022/03/12 00:18:42;;;;;;;4.05;2.83;;;3.50;99.90;;;;;;5031685;28;20544;-74
2022/03/12 00:21:12;;;;;;;3.38;2.75;;;3.50;99.90;;;;;;5031574;28;20025;-74
2022/03/12 00:23:41;;;;;;;3.40;2.65;;;3.40;99.90;;;;;;5031821;28;20136;-74
2022/03/12 00:26:07;;;;;;;5.82;2.95;;;3.40;99.90;;;;;;5031673;28;20056;-74
2022/03/12 00:28:33;;;;;;;3.90;3.50;;;3.40;99.90;;;;;;5031942;28;20025;-73
2022/03/12 00:30:59;;;;;;;3.47;2.88;;;3.40;99.90;;;;;;5032634;28;20083;-74
2022/03/12 00:33:25;;;;;;;3.72;2.83;;;3.40;99.90;;;;;;5035758;28;20025;-74
2022/03/12 00:35:53;;;;;;;4.28;3.25;;;3.30;99.90;;;;;;5034121;28;20550;-76
2022/03/12 00:38:23;;;;;;;5.68;3.30;;;3.40;99.90;;;;;;5034041;28;20516;-76
2022/03/12 00:40:49;;;;;;;4.03;3.15;;;3.40;99.90;;;;;;5035372;28;20621;-76
2022/03/12 00:43:15;;;;;;;4.40;3.10;;;3.30;99.90;;;;;;5035290;28;20044;-76
2022/03/12 00:45:41;;;;;;;4.07;3.10;;;3.30;99.90;;;;;;5035079;28;20388;-76
2022/03/12 00:48:07;;;;;;;4.18;3.10;;;3.30;99.90;;;;;;5034828;28;20041;-73
2022/03/12 00:50:33;;;;;;;5.07;3.40;;;3.30;99.90;;;;;;5035146;28;20469;-73
2022/03/12 00:53:00;;;;;;;5.55;3.17;;;3.20;99.90;;;;;;5035088;28;20044;-74
2022/03/12 00:55:26;;;;;;;3.63;2.75;;;3.20;99.90;;;;;;5034941;28;20025;-74
2022/03/12 00:57:51;;;;;;;4.13;3.00;;;3.20;99.90;;;;;;5034762;28;20026;-74
2022/03/12 01:00:19;;;;;;;4.32;3.25;;;3.20;99.90;;;;;;5035142;28;20025;-73
2022/03/12 01:02:45;;;;;;;5.05;3.22;;;3.20;99.90;;;;;;5035090;28;20134;-74
2022/03/12 01:05:15;;;;;;;3.63;3.00;;;3.20;99.90;;;;;;5034879;28;20036;-74
2022/03/12 01:07:41;;;;;;;5.10;3.17;;;3.20;99.90;;;;;;5034962;28;20392;-74
2022/03/12 01:10:07;;;;;;;3.67;2.88;;;3.10;99.90;;;;;;5034753;28;20048;-76
2022/03/12 01:12:33;;;;;;;6.55;3.40;;;3.20;99.90;;;;;;5034882;28;20112;-76
2022/03/12 01:14:59;;;;;;;4.03;3.63;;;3.20;99.90;;;;;;5034859;28;20459;-76
2022/03/12 01:17:24;;;;;;;5.13;3.30;;;3.10;99.90;;;;;;5034531;28;20049;-77
2022/03/12 01:19:50;;;;;;;4.35;3.20;;;3.10;99.90;;;;;;5034586;28;20061;-76
2022/03/12 01:22:20;;;;;;;4.88;3.42;;;3.10;99.90;;;;;;5034591;28;20026;-77
2022/03/12 01:24:47;;;;;;;5.30;3.40;;;3.10;99.90;;;;;;5034405;28;20543;-76
2022/03/12 01:27:15;;;;;;;4.38;3.10;;;3.00;99.90;;;;;;5034170;28;20525;-76
2022/03/12 01:29:42;;;;;;;4.00;3.30;;;3.00;99.90;;;;;;5034252;28;20029;-76
2022/03/12 01:32:08;;;;;;;3.83;2.95;;;3.00;99.90;;;;;;5034163;28;20029;-76
2022/03/12 01:34:34;;;;;;;5.38;3.35;;;3.00;99.90;;;;;;5032959;28;20033;-76
2022/03/12 01:37:00;;;;;;;4.07;3.40;;;3.00;99.90;;;;;;5034041;28;20495;-75
2022/03/12 01:39:27;;;;;;;4.50;3.22;;;3.00;99.90;;;;;;5034312;28;20473;-76
2022/03/12 01:41:54;;;;;;;4.82;3.20;;;2.90;99.90;;;;;;5033784;28;20488;-75
2022/03/12 01:44:21;;;;;;;3.85;3.10;;;2.90;99.90;;;;;;5034183;28;20120;-81
2022/03/12 01:46:48;;;;;;;3.85;3.30;;;2.90;99.90;;;;;;5034477;28;20152;-84
2022/03/12 01:49:17;;;;;;;8.90;4.30;;;2.90;99.90;;;;;;5033804;28;20060;-81
2022/03/12 01:51:44;;;;;;;3.88;3.05;;;2.90;99.90;;;;;;5033884;28;20028;-83
2022/03/12 01:54:11;;;;;;;5.20;3.50;;;2.80;99.90;;;;;;5034212;28;20029;-85
2022/03/12 01:56:38;;;;;;;5.47;3.33;;;2.80;99.90;;;;;;5032907;28;20030;-84
2022/03/12 01:59:05;;;;;;;3.42;2.88;;;2.80;99.90;;;;;;5032790;28;20031;-84
2022/03/12 02:01:31;;;;;;;4.20;3.40;;;2.80;99.90;;;;;;5034051;28;20029;-85
2022/03/12 02:04:00;;;;;;;5.25;3.17;;;2.80;99.90;;;;;;5033951;28;20492;-84
2022/03/12 02:06:26;;;;;;;6.90;3.53;;;2.80;99.90;;;;;;5034150;28;20092;-85
2022/03/12 02:08:57;;;;;;;6.18;3.40;;;2.80;99.90;;;;;;5033921;28;20034;-84
2022/03/12 02:11:30;;;;;;;6.07;3.35;;;2.80;99.90;;;;;;5033900;28;20026;-85
2022/03/12 02:14:09;;;;;;;8.77;3.40;;;2.80;99.90;;;;;;5032610;28;20022;-85
2022/03/12 02:16:36;;;;;;;4.47;2.83;;;2.70;99.90;;;;;;5033895;28;20035;-81
2022/03/12 02:19:02;;;;;;;6.85;3.30;;;2.70;99.90;;;;;;5033377;28;20033;-80
2022/03/12 02:21:43;;;;;;;6.78;2.97;;;2.70;99.90;;;;;;5033322;28;20388;-80
2022/03/12 02:55:57;;;;;;;4.43;3.08;;;2.40;99.90;;;;;;5032158;28;20080;-79
2022/03/12 02:58:23;;;;;;;4.40;3.53;;;2.40;99.90;;;;;;5032610;28;20037;-81
2022/03/12 03:00:49;;;;;;;4.85;4.13;;;2.30;99.90;;;;;;5032987;28;20029;-80
2022/03/12 03:03:15;;;;;;;5.55;3.45;;;2.30;99.90;;;;;;5032536;28;20049;-80
2022/03/12 03:36:46;;;;;;;4.53;3.38;;;2.00;99.90;;;;;;6002453;22;20020;-84
2022/03/12 03:39:12;;;;;;;5.57;3.50;;;2.00;99.90;;;;;;5029516;28;20091;-82
2022/03/12 03:41:37;;;;;;;5.75;3.80;;;2.00;99.90;;;;;;5032115;28;20492;-83
2022/03/12 03:44:05;;;;;;;6.43;3.47;;;2.00;99.90;;;;;;5032146;28;20108;-83
2022/03/12 03:46:31;;;;;;;4.10;3.50;;;1.90;99.90;;;;;;5032321;28;20036;-82
2022/03/12 03:48:57;;;;;;;5.05;3.60;;;1.90;99.90;;;;;;5016313;28;20057;-82
2022/03/12 03:51:23;;;;;;;4.85;3.25;;;1.90;99.90;;;;;;5012085;28;20080;-82
2022/03/12 03:53:49;;;;;;;5.18;3.53;;;1.80;99.90;;;;;;5012236;28;20052;-82
2022/03/12 03:56:16;;;;;;;4.03;3.30;;;1.80;99.90;;;;;;5012051;28;20485;-79
2022/03/12 03:58:43;;;;;;;3.90;3.47;;;1.80;99.90;;;;;;5012205;28;20037;-79
2022/03/12 04:01:13;;;;;;;6.65;3.65;;;1.80;99.90;;;;;;5012339;28;20022;-79
2022/03/12 04:03:48;;;;;;;4.63;3.80;;;1.80;99.90;;;;;;5012204;28;20116;-79
2022/03/12 04:06:18;;;;;;;5.13;3.28;;;1.80;99.90;;;;;;5015454;28;20068;-80
2022/03/12 04:08:44;;;;;;;5.85;3.60;;;1.80;99.90;;;;;;5016119;28;20029;-79
2022/03/12 04:11:28;;;;;;;4.72;3.65;;;1.80;99.90;;;;;;5016133;28;20030;-80
2022/03/12 04:13:56;;;;;;;7.28;3.65;;;1.90;99.90;;;;;;5016246;28;20018;-80
2022/03/12 04:16:22;;;;;;;4.05;3.50;;;1.90;99.90;;;;;;5016214;28;20022;-84
2022/03/12 04:18:49;;;;;;;4.55;3.90;;;2.00;99.90;;;;;;5016028;28;20049;-85
2022/03/12 04:21:17;;;;;;;4.70;3.67;;;2.00;99.90;;;;;;5015774;28;20026;-81
2022/03/12 04:23:44;;;;;;;6.88;3.53;;;2.00;99.90;;;;;;5015859;28;20481;-79
2022/03/12 04:26:11;;;;;;;4.72;3.33;;;1.90;99.90;;;;;;5015683;28;20042;-80
2022/03/12 04:28:38;;;;;;;3.50;3.20;;;1.90;99.90;;;;;;5015578;28;20065;-80
2022/03/12 04:31:05;;;;;;;5.40;3.45;;;1.90;99.90;;;;;;5015991;28;20057;-80
2022/03/12 04:33:32;;;;;;;4.57;3.40;;;1.90;99.90;;;;;;5015617;28;20026;-79
2022/03/12 04:36:00;;;;;;;5.95;3.25;;;1.90;99.90;;;;;;5015649;28;20508;-80
2022/03/12 04:38:26;;;;;;;5.85;3.47;;;2.00;99.90;;;;;;5015073;28;20112;-80
2022/03/12 04:40:55;;;;;;;4.65;3.40;;;2.00;99.90;;;;;;5015867;28;20033;-79
2022/03/12 04:43:25;;;;;;;3.85;3.25;;;2.00;99.90;;;;;;5015712;28;20417;-80
2022/03/12 04:45:52;;;;;;;4.70;3.10;;;2.00;99.90;;;;;;5015678;28;20025;-79
2022/03/12 04:48:19;;;;;;;4.53;3.28;;;2.00;99.90;;;;;;5015111;28;20117;-76
2022/03/12 04:50:45;;;;;;;4.10;3.00;;;2.00;99.90;;;;;;5015356;28;20037;-81
2022/03/12 04:53:11;;;;;;;3.47;3.15;;;2.00;99.90;;;;;;5015387;28;20024;-76
2022/03/12 04:55:38;;;;;;;4.00;3.13;;;2.00;99.90;;;;;;5015228;28;20026;-76
2022/03/12 04:58:09;;;;;;;4.50;3.15;;;2.00;99.90;;;;;;5015332;28;20021;-76
2022/03/12 05:00:38;;;;;;;4.15;2.85;;;2.00;99.90;;;;;;5015508;28;20029;-76
2022/03/12 05:03:08;;;;;;;3.70;3.20;;;2.00;99.90;;;;;;5013800;28;20113;-76
2022/03/12 05:05:38;;;;;;;4.22;3.50;;;2.00;99.90;;;;;;5015389;28;20028;-76
2022/03/12 05:08:04;;;;;;;3.50;3.10;;;1.90;99.90;;;;;;5015264;28;20508;-76
2022/03/12 05:10:30;;;;;;;3.65;3.28;;;1.90;99.90;;;;;;5013565;28;20149;-80
2022/03/12 05:13:00;;;;;;;4.25;3.50;;;1.90;99.90;;;;;;5014936;28;20156;-79
2022/03/12 05:15:34;;;;;;;3.40;3.10;;;1.90;99.90;;;;;;5014825;28;20064;-80
2022/03/12 05:18:01;;;;;;;4.57;3.20;;;1.80;99.90;;;;;;5014094;28;20029;-80
2022/03/12 05:20:28;;;;;;;4.00;3.13;;;1.70;99.90;;;;;;5014598;28;20029;-80
2022/03/12 05:22:54;;;;;;;4.78;3.78;;;1.70;99.90;;;;;;5014776;28;20156;-80
2022/03/12 05:25:20;;;;;;;3.78;3.20;;;1.70;99.90;;;;;;5014653;28;20109;-77
2022/03/12 05:27:47;;;;;;;4.28;3.25;;;1.60;99.90;;;;;;5014934;28;20033;-77
2022/03/12 05:30:13;;;;;;;3.88;3.00;;;1.70;99.90;;;;;;5014568;28;20038;-78
2022/03/12 05:32:39;;;;;;;5.25;3.60;;;1.70;99.90;;;;;;5014947;28;20022;-71
2022/03/12 05:35:06;;;;;;;5.35;3.42;;;1.70;99.90;;;;;;5014652;28;20030;-71
2022/03/12 05:37:34;;;;;;;3.17;2.88;;;1.70;99.90;;;;;;5014245;28;20389;-72
2022/03/12 05:40:00;;;;;;;4.97;3.40;;;1.70;99.90;;;;;;5014846;28;20029;-66
2022/03/12 05:42:25;;;;;;;1.88;1.48;;;1.70;99.90;;;;;;5014281;28;20492;-71
2022/03/12 05:44:56;;;;;;;4.47;3.05;;;3.10;99.90;;;;;;5027517;28;20033;-70
2022/03/12 05:47:23;;;;;;;3.78;2.70;;;4.30;99.90;;;;;;5023219;28;20030;-73
2022/03/12 05:49:49;;;;;;;3.95;3.13;;;4.00;99.90;;;;;;5033202;28;20129;-71
2022/03/12 05:52:17;;;;;;;5.47;3.03;;;3.60;99.90;;;;;;5033359;28;20049;-71
2022/03/12 05:54:44;;;;;;;4.07;3.00;;;3.30;99.90;;;;;;5032008;28;20057;-77
2022/03/12 05:57:09;;;;;;;6.18;3.17;;;3.10;99.90;;;;;;5033125;28;20380;-81
2022/03/12 05:59:35;;;;;;;4.68;3.25;;;3.00;99.90;;;;;;5033195;28;20041;-70
2022/03/12 06:02:01;;;;;;;3.22;2.92;;;3.00;99.90;;;;;;5029606;28;20026;-70
2022/03/12 06:04:27;;;;;;;4.18;2.95;;;3.00;99.90;;;;;;5013477;28;20026;-70
2022/03/12 06:06:55;;;;;;;4.18;3.03;;;3.00;99.90;;;;;;5032008;28;20045;-70
2022/03/12 06:09:22;;;;;;;4.25;2.90;;;3.10;99.90;;;;;;5032889;28;20113;-76
2022/03/12 06:11:50;;;;;;;3.85;2.80;;;3.20;99.90;;;;;;5025733;28;20117;-73
2022/03/12 06:14:16;;;;;;;3.08;2.75;;;3.30;99.90;;;;;;5025039;28;20615;-70
2022/03/12 06:16:48;;;;;;;3.88;3.25;;;3.50;99.90;;;;;;5033140;28;20064;-70
2022/03/12 06:19:19;;;;;;;4.95;3.50;;;3.70;99.90;;;;;;5032643;28;20033;-71
2022/03/12 06:21:46;;;;;;;3.58;2.92;;;3.70;99.90;;;;;;5033393;28;20468;-70
2022/03/12 06:24:12;;;;;;;4.63;2.85;;;3.80;99.90;;;;;;5033226;28;20461;-68
2022/03/12 06:26:39;;;;;;;5.53;3.10;;;3.90;99.90;;;;;;5033240;28;20044;-69
2022/03/12 06:29:11;;;;;;;3.20;2.90;;;4.10;99.90;;;;;;5032372;28;20060;-69
2022/03/12 06:31:37;;;;;;;5.47;3.10;;;4.30;99.90;;;;;;5033209;28;20025;-69
2022/03/12 06:34:03;;;;;;;3.60;2.80;;;4.40;99.90;;;;;;5033066;28;20028;-69
2022/03/12 06:36:29;;;;;;;3.95;2.75;;;4.50;99.90;;;;;;5033100;28;20040;-69
2022/03/12 06:38:55;;;;;;;3.88;3.10;;;4.50;99.90;;;;;;5032505;28;20061;-69
2022/03/12 06:41:21;;;;;;;3.80;2.90;;;4.60;99.90;;;;;;5033132;28;20026;-69
2022/03/12 06:43:48;;;;;;;5.93;3.20;;;4.60;99.90;;;;;;5032971;28;20025;-69
2022/03/12 06:46:14;;;;;;;3.78;2.67;;;4.60;99.90;;;;;;5032910;28;20022;-69
2022/03/12 06:48:40;;;;;;;3.40;2.90;;;4.60;99.90;;;;;;5032566;28;20045;-72
2022/03/12 06:51:06;;;;;;;4.50;2.97;;;4.70;99.90;;;;;;5031471;28;20029;-71
2022/03/12 06:53:32;;;;;;;3.28;2.78;;;4.60;99.90;;;;;;5032539;28;20393;-71
2022/03/12 06:55:59;;;;;;;4.15;3.03;;;4.60;99.90;;;;;;5032526;28;20424;-71
2022/03/12 06:58:26;;;;;;;5.90;2.83;;;4.60;99.90;;;;;;5032526;28;20105;-78
2022/03/12 07:00:52;;;;;;;4.43;3.20;;;4.60;99.90;;;;;;5032834;28;20033;-74
2022/03/12 07:03:17;;;;;;;4.00;2.97;;;4.60;99.90;;;;;;5032761;28;20017;-73
2022/03/12 07:05:43;;;;;;;4.57;3.08;;;4.60;99.90;;;;;;5032950;28;20033;-74
2022/03/12 07:08:09;;;;;;;3.25;2.95;;;4.60;99.90;;;;;;5032541;28;20180;-77
2022/03/12 07:10:35;;;;;;;3.88;3.08;;;4.60;99.90;;;;;;5031088;28;20068;-78
2022/03/12 07:13:00;;;;;;;4.05;2.92;;;4.60;99.90;;;;;;5032730;28;20032;-73
2022/03/12 07:15:26;;;;;;;1.88;1.70;;;4.60;99.90;;;;;;5032501;28;20036;-76
2022/03/12 07:17:53;;;;;;;3.60;2.75;;;5.00;99.90;;;;;;5032629;28;20025;-71
2022/03/12 07:20:19;;;;;;;3.00;2.70;;;5.90;99.90;;;;;;5032490;28;20056;-79
2022/03/12 07:22:46;;;;;;;3.70;2.90;;;5.90;99.90;;;;;;5031067;28;20088;-74
2022/03/12 07:25:13;;;;;;;14.45;7.63;;;5.70;99.90;;;;;;5032257;28;20480;-75
2022/03/12 07:27:40;;;;;;;117.28;50.10;;;5.50;99.90;;;;;;5032095;28;20026;-73
2022/03/12 07:30:08;;;;;;;110.20;46.33;;;5.30;99.90;;;;;;5032052;28;20034;-74
2022/03/12 07:32:35;;;;;;;108.97;44.70;;;5.20;99.90;;;;;;5031673;28;20022;-70
2022/03/12 07:35:02;;;;;;;64.80;28.55;;;5.10;99.90;;;;;;5031075;28;20064;-75
2022/03/12 07:37:28;;;;;;;46.80;18.50;;;5.00;99.90;;;;;;5030913;28;20562;-70
2022/03/12 07:39:54;;;;;;;16.30;7.55;;;5.00;99.90;;;;;;5029660;28;20017;-69
2022/03/12 07:42:20;;;;;;;24.83;11.73;;;5.00;99.90;;;;;;5030859;28;20529;-73
2022/03/12 07:44:46;;;;;;;22.90;10.88;;;5.00;99.90;;;;;;5030792;28;20026;-73
2022/03/12 07:47:11;;;;;;;9.27;5.22;;;5.00;99.90;;;;;;5023983;28;20495;-71
2022/03/12 07:49:38;;;;;;;6.82;3.90;;;5.00;99.90;;;;;;5031244;28;20033;-73
2022/03/12 07:52:09;;;;;;;5.25;3.42;;;5.00;99.90;;;;;;5029005;28;20503;-69
2022/03/12 07:54:35;;;;;;;4.78;3.00;;;4.90;99.90;;;;;;5017182;28;20370;-69
2022/03/12 07:57:01;;;;;;;8.65;7.38;;;5.00;99.90;;;;;;5027886;28;20032;-70
2022/03/12 07:59:27;;;;;;;10.27;7.30;;;5.20;99.90;;;;;;5029548;28;20029;-73
2022/03/12 08:01:53;;;;;;;5.20;4.15;;;5.20;99.90;;;;;;5025878;28;20113;-73
2022/03/12 08:04:18;;;;;;;15.75;10.02;;;5.20;99.90;;;;;;5031608;28;20104;-73
2022/03/12 08:06:44;;;;;;;7.82;6.05;;;5.20;99.90;;;;;;5031938;28;20026;-72
2022/03/12 08:09:10;;;;;;;6.18;4.10;;;5.20;99.90;;;;;;5031935;28;20371;-73
2022/03/12 08:11:36;;;;;;;6.25;3.55;;;5.20;99.90;;;;;;5031687;28;20471;-72
2022/03/12 08:14:06;;;;;;;4.20;2.72;;;5.20;99.90;;;;;;5031731;28;20026;-71
2022/03/12 08:16:35;;;;;;;;;;;5.30;99.90;;;;;;5021529;28;20049;-72
2022/03/12 08:19:06;;;;;;;4.05;3.10;;;5.30;99.90;;;;;;5015144;28;20422;-71
2022/03/12 08:21:33;;;;;;;5.22;3.20;;;5.30;99.90;;;;;;5011842;28;20033;-76
2022/03/12 08:23:58;;;;;;;3.80;2.72;;;5.30;99.90;;;;;;5012041;28;20437;-70
2022/03/12 08:26:25;;;;;;;3.25;2.72;;;5.40;99.90;;;;;;5012000;28;20038;-72
2022/03/12 08:28:51;;;;;;;3.78;3.00;;;5.60;99.90;;;;;;5011821;28;20077;-70
2022/03/12 08:31:18;;;;;;;5.13;2.83;;;6.10;99.90;;;;;;5015679;28;20461;-69
2022/03/12 08:33:45;;;;;;;3.33;2.95;;;6.40;99.90;;;;;;5020043;28;20442;-70
2022/03/12 08:36:11;;;;;;;3.67;2.85;;;6.70;99.90;;;;;;5019003;28;20041;-70
2022/03/12 08:38:37;;;;;;;2.95;2.60;;;6.80;99.90;;;;;;5030289;28;20125;-71
2022/03/12 08:41:07;;;;;;;6.80;3.22;;;6.90;99.90;;;;;;5018549;28;20034;-70
2022/03/12 08:43:34;;;;;;;;;;;6.90;99.90;;;;;;5031639;28;20377;-69
2022/03/12 08:46:00;;;;;;;5.00;3.40;;;7.00;99.90;;;;;;5029261;28;20058;-73
2022/03/12 08:48:27;;;;;;;5.78;2.70;;;7.00;99.90;;;;;;5030368;28;20032;-73
2022/03/12 08:50:52;;;;;;;4.30;2.92;;;6.70;99.90;;;;;;5030890;28;20030;-73
2022/03/12 08:53:20;;;;;;;5.15;3.33;;;6.70;99.90;;;;;;5034158;28;20105;-72
2022/03/12 08:55:47;;;;;;;3.60;2.65;;;6.60;99.90;;;;;;5034923;28;20030;-72
2022/03/12 08:58:13;;;;;;;6.20;3.58;;;6.50;99.90;;;;;;5034989;28;20095;-72
2022/03/12 09:00:39;;;;;;;3.80;3.03;;;6.50;99.90;;;;;;5034247;28;20026;-72
2022/03/12 09:03:06;;;;;;;4.05;3.08;;;6.40;99.90;;;;;;5034407;28;20040;-73
2022/03/12 09:05:32;;;;;;;4.63;3.25;;;6.40;99.90;;;;;;5033490;28;20029;-74
2022/03/12 09:07:58;;;;;;;6.10;3.58;;;6.40;99.90;;;;;;5033104;28;20029;-73
2022/03/12 09:10:27;;;;;;;4.38;3.00;;;6.50;99.90;;;;;;5032821;28;20029;-73
2022/03/12 09:12:53;;;;;;;9.13;3.28;;;6.40;99.90;;;;;;5034600;28;20033;-73
2022/03/12 09:15:24;;;;;;;9.80;4.53;;;6.40;99.90;;;;;;5034014;28;20464;-74
2022/03/12 09:17:51;;;;;;;7.13;4.47;;;6.50;99.90;;;;;;5033009;28;20451;-74
2022/03/12 09:20:17;;;;;;;8.13;4.70;;;6.50;99.90;;;;;;5034290;28;20121;-72
2022/03/12 09:22:43;;;;;;;6.38;4.30;;;6.50;99.90;;;;;;5034500;28;20108;-74
2022/03/12 09:25:11;;;;;;;7.07;4.85;;;6.50;99.90;;;;;;5033124;28;20052;-75
2022/03/12 09:27:37;;;;;;;7.38;4.25;;;6.60;99.90;;;;;;5034458;28;20021;-74
2022/03/12 09:30:04;;;;;;;14.38;8.73;;;6.60;99.90;;;;;;5034262;28;20041;-74
2022/03/12 09:32:30;;;;;;;38.20;22.25;;;6.60;99.90;;;;;;5034081;28;20026;-73
2022/03/12 09:34:55;;;;;;;24.25;16.60;;;6.70;99.90;;;;;;5034361;28;20033;-73
2022/03/12 09:37:21;;;;;;;26.00;16.60;;;6.70;99.90;;;;;;5034010;28;20397;-73
2022/03/12 09:39:47;;;;;;;8.32;6.13;;;6.80;99.90;;;;;;5034454;28;20143;-74
2022/03/12 09:42:13;;;;;;;8.80;5.25;;;7.80;99.90;;;;;;5034391;28;20056;-74
2022/03/12 09:44:39;;;;;;;9.63;5.18;;;8.30;99.90;;;;;;5025954;28;20389;-74
2022/03/12 09:47:06;;;;;;;8.05;4.63;;;8.10;99.90;;;;;;5016267;28;20018;-74
2022/03/12 09:49:33;;;;;;;5.40;3.92;;;7.90;99.90;;;;;;5018849;28;20033;-74
2022/03/12 09:52:00;;;;;;;6.50;3.67;;;7.70;99.90;;;;;;5016177;28;20010;-74
2022/03/12 09:54:28;;;;;;;5.57;4.13;;;7.50;99.90;;;;;;5023455;28;20026;-73
2022/03/12 09:56:54;;;;;;;6.43;3.75;;;7.50;99.90;;;;;;5014109;28;20485;-74
2022/03/12 09:59:20;;;;;;;5.63;3.83;;;7.60;99.90;;;;;;5016206;28;20037;-73
2022/03/12 10:01:46;;;;;;;8.35;4.53;;;7.70;99.90;;;;;;5013915;28;20030;-74
2022/03/12 10:04:12;;;;;;;6.60;3.97;;;7.60;99.90;;;;;;5013694;28;20025;-74
2022/03/12 10:06:40;;;;;;;6.88;4.00;;;7.60;99.90;;;;;;5012625;28;20026;-73
2022/03/12 10:09:06;;;;;;;11.35;3.88;;;7.50;99.90;;;;;;5013748;28;20108;-73
2022/03/12 10:11:34;;;;;;;7.03;4.35;;;7.60;99.90;;;;;;5013650;28;20485;-73
2022/03/12 10:14:00;;;;;;;14.75;5.00;;;7.70;99.90;;;;;;5014083;28;20026;-73
2022/03/12 10:16:29;;;;;;;11.80;4.00;;;8.10;99.90;;;;;;5013674;28;20028;-74
2022/03/12 10:18:55;;;;;;;8.13;4.13;;;8.00;99.90;;;;;;5013985;28;20026;-80
2022/03/12 10:21:22;;;;;;;10.57;4.53;;;7.90;99.90;;;;;;5012457;28;20026;-74
2022/03/12 10:23:48;;;;;;;6.15;3.45;;;7.90;99.90;;;;;;5013531;28;20057;-71
2022/03/12 10:26:19;;;;;;;5.10;3.47;;;8.20;99.90;;;;;;5012294;28;20053;-73
2022/03/12 10:28:45;;;;;;;7.93;3.88;;;8.60;99.90;;;;;;5011937;28;20096;-74
2022/03/12 10:31:12;;;;;;;13.85;3.83;;;8.60;99.90;;;;;;5013482;28;20053;-74
2022/03/12 10:33:38;;;;;;;15.10;5.00;;;8.50;99.90;;;;;;5013306;28;20105;-74
2022/03/12 10:36:17;;;;;;;6.35;3.90;;;8.40;99.90;;;;;;5013253;28;20053;-74
2022/03/12 10:38:48;;;;;;;4.57;3.25;;;8.30;99.90;;;;;;5012801;28;20599;-74
2022/03/12 10:41:15;;;;;;;4.95;2.97;;;8.30;99.90;;;;;;5013419;28;20045;-75
2022/03/12 10:43:54;;;;;;;5.47;3.00;;;8.30;99.90;;;;;;5013354;28;20053;-74
2022/03/12 10:46:27;;;;;;;4.75;3.10;;;8.30;99.90;;;;;;5013650;28;20177;-74
2022/03/12 10:48:58;;;;;;;4.63;2.88;;;8.30;99.90;;;;;;5020046;28;20033;-74
2022/03/12 10:51:26;;;;;;;7.20;3.03;;;8.30;99.90;;;;;;5023856;28;20033;-74
2022/03/12 10:54:05;;;;;;;31.85;5.63;;;8.40;99.90;;;;;;5012891;28;20040;-74
2022/03/12 10:56:48;;;;;;;5.07;3.17;;;8.40;99.90;;;;;;5012801;28;20068;-73
2022/03/12 10:59:22;;;;;;;5.43;2.55;;;8.50;99.90;;;;;;5013014;28;20025;-74
2022/03/12 11:01:56;;;;;;;7.13;3.20;;;8.50;99.90;;;;;;5013108;28;20037;-74
2022/03/12 11:04:29;;;;;;;7.93;3.00;;;8.60;99.90;;;;;;5012882;28;20058;-74
2022/03/12 11:06:58;;;;;;;4.20;2.70;;;8.70;99.90;;;;;;5012935;28;20017;-74
2022/03/12 11:09:38;;;;;;;5.80;2.97;;;8.70;99.90;;;;;;5012884;28;20100;-74
2022/03/12 11:12:42;;;;;;;8.30;3.95;;;8.80;99.90;;;;;;5012918;28;20023;-73
2022/03/12 11:15:15;;;;;;;7.22;2.90;;;8.80;99.90;;;;;;5012352;28;20053;-74
2022/03/12 11:17:45;;;;;;;7.45;2.40;;;8.90;99.90;;;;;;5027017;28;20029;-74
2022/03/12 11:20:21;;;;;;;3.97;2.35;;;8.90;99.90;;;;;;5031968;28;20037;-74
2022/03/12 11:22:50;;;;;;;6.10;2.50;;;9.00;99.90;;;;;;5032473;28;20025;-74
2022/03/12 11:25:21;;;;;;;2.97;2.08;;;9.10;99.90;;;;;;5032231;28;20025;-74
2022/03/12 11:27:50;;;;;;;5.88;2.40;;;9.10;99.90;;;;;;5032132;28;20022;-73
2022/03/12 11:30:20;;;;;;;5.70;2.25;;;9.10;99.90;;;;;;5031982;28;20103;-74
2022/03/12 11:32:47;;;;;;;2.55;1.60;;;9.20;99.90;;;;;;5032130;28;20035;-73
2022/03/12 11:35:18;;;;;;;4.05;1.60;;;9.20;99.90;;;;;;5030868;28;20036;-74
2022/03/12 11:37:44;;;;;;;2.50;1.65;;;9.20;99.80;;;;;;5031690;28;20083;-73
2022/03/12 11:40:18;;;;;;;2.13;1.50;;;9.20;99.90;;;;;;5032019;28;20508;-74
2022/03/12 11:42:44;;;;;;;3.45;1.58;;;9.20;98.50;;;;;;5032146;28;20392;-74
2022/03/12 11:45:15;;;;;;;3.15;1.42;;;9.20;98.70;;;;;;5031990;28;20022;-74
2022/03/12 11:47:43;;;;;;;1.73;1.10;;;9.20;98.70;;;;;;5031928;28;20116;-74
2022/03/12 11:50:13;;;;;;;2.47;1.40;;;9.20;97.60;;;;;;5031814;28;20037;-74
2022/03/12 11:52:39;;;;;;;3.85;1.48;;;9.20;97.50;;;;;;5031858;28;20419;-74
2022/03/12 11:55:17;;;;;;;2.80;1.40;;;9.20;97.90;;;;;;5031972;28;20095;-74
2022/03/12 11:57:46;;;;;;;1.92;1.15;;;9.30;97.70;;;;;;5030589;28;20044;-75
2022/03/12 12:00:29;;;;;;;2.08;1.42;;;9.30;97.50;;;;;;5031838;28;20108;-74
2022/03/12 12:02:55;;;;;;;1.92;1.38;;;9.30;96.90;;;;;;5032192;28;20036;-74
2022/03/12 12:05:23;;;;;;;5.82;1.23;;;9.30;97.10;;;;;;5031753;28;20020;-74
2022/03/12 12:07:51;;;;;;;4.22;1.10;;;9.40;97.00;;;;;;5031604;28;20033;-74
2022/03/12 12:10:20;;;;;;;4.20;1.50;;;9.40;96.50;;;;;;5031863;28;20440;-74
2022/03/12 12:12:50;;;;;;;4.10;1.60;;;9.40;96.60;;;;;;5031526;28;20033;-73
2022/03/12 12:15:20;;;;;;;4.75;1.70;;;9.40;96.80;;;;;;5031928;28;20049;-74
2022/03/12 12:17:47;;;;;;;1.40;1.30;;;9.50;99.90;;;;;;5031158;28;20036;-71
2022/03/12 12:20:15;;;;;;;4.43;1.40;;;10.40;99.90;;;;;;5031796;28;20318;-74
2022/03/12 12:22:41;;;;;;;2.13;1.50;;;10.60;99.20;;;;;;5022893;28;20057;-74
2022/03/12 12:25:09;;;;;;;3.25;1.30;;;10.40;94.80;;;;;;5012102;28;20068;-75
2022/03/12 12:27:53;;;;;;;3.08;1.30;;;10.20;94.20;;;;;;5015628;28;20026;-75
2022/03/12 12:30:40;;;;;;;2.15;1.33;;;10.00;94.20;;;;;;5015652;28;20478;-69
2022/03/12 12:33:23;;;;;;;7.82;1.48;;;9.90;94.40;;;;;;5015643;28;20481;-71
2022/03/12 12:36:05;;;;;;;1.63;1.25;;;9.80;94.50;;;;;;5033881;28;20033;-71
2022/03/12 12:38:31;;;;;;;1.95;1.35;;;9.80;94.90;;;;;;5035059;28;20088;-71
2022/03/12 12:40:59;;;;;;;5.90;1.20;;;9.90;98.40;;;;;;5034116;28;20033;-71
2022/03/12 12:43:33;;;;;;;2.17;1.52;;;10.00;96.30;;;;;;5035374;28;20017;-71
2022/03/12 12:46:19;;;;;;;2.65;1.52;;;10.00;94.90;;;;;;5035409;28;20361;-71
2022/03/12 12:48:48;;;;;;;1.63;1.25;;;9.90;94.80;;;;;;5033762;28;20028;-71
2022/03/12 12:51:26;;;;;;;7.88;1.70;;;9.90;94.80;;;;;;5035386;28;20033;-71
2022/03/12 12:53:57;;;;;;;3.95;1.35;;;9.90;94.40;;;;;;5034984;28;20109;-71
2022/03/12 12:56:38;;;;;;;1.52;1.40;;;9.90;94.70;;;;;;5034982;28;20491;-71
2022/03/12 12:59:13;;;;;;;3.40;1.70;;;9.80;94.60;;;;;;5035366;28;20029;-71
2022/03/12 13:01:41;;;;;;;1.73;1.40;;;9.80;94.20;;;;;;5035213;28;20022;-71
2022/03/12 13:04:09;;;;;;;4.22;1.65;;;9.80;94.60;;;;;;5035173;28;20028;-71
2022/03/12 13:06:40;;;;;;;2.55;1.33;;;9.80;94.20;;;;;;5034927;28;20030;-71
2022/03/12 13:09:40;;;;;;;4.55;1.70;;;9.80;93.80;;;;;;5034821;28;20037;-71
2022/03/12 13:12:07;;;;;;;4.28;1.42;;;9.80;94.00;;;;;;5034821;28;20049;-71
2022/03/12 13:14:51;;;;;;;4.75;1.73;;;9.70;93.80;;;;;;5034785;28;20092;-71
2022/03/12 13:17:30;;;;;;;2.15;1.30;;;9.80;94.10;;;;;;5034974;28;20067;-71
2022/03/12 13:19:57;;;;;;;6.40;1.73;;;9.70;93.60;;;;;;5034619;28;20029;-74
2022/03/12 13:22:24;;;;;;;1.73;1.20;;;10.10;98.50;;;;;;5031844;28;20275;-71
2022/03/12 13:25:01;;;;;;;2.60;1.27;;;10.20;93.30;;;;;;5016999;28;20034;-71
2022/03/12 13:27:30;;;;;;;2.70;1.80;;;10.10;91.60;;;;;;5014565;28;20053;-72
2022/03/12 13:30:10;;;;;;;5.20;1.85;;;9.90;91.80;;;;;;5014379;28;20030;-72
2022/03/12 13:32:40;;;;;;;3.75;1.50;;;9.90;92.30;;;;;;5014784;28;20026;-72
2022/03/12 13:35:12;;;;;;;2.42;1.40;;;9.90;92.50;;;;;;5014526;28;20481;-72
2022/03/12 13:37:40;;;;;;;4.63;1.40;;;9.80;92.60;;;;;;5013710;28;20038;-71
2022/03/12 13:40:12;;;;;;;4.25;2.35;;;9.80;92.20;;;;;;5014448;28;20037;-72
2022/03/12 13:42:47;;;;;;;3.05;1.40;;;9.70;92.10;;;;;;5014315;28;20492;-74
2022/03/12 13:45:13;;;;;;;4.75;1.63;;;9.80;99.90;;;;;;5014523;28;20058;-71
2022/03/12 13:47:39;;;;;;;3.10;2.00;;;10.50;99.50;;;;;;5014165;28;20026;-71
2022/03/12 13:50:07;;;;;;;5.03;2.20;;;10.40;94.00;;;;;;5014134;28;20080;-71
2022/03/12 13:52:32;;;;;;;5.45;2.70;;;10.10;92.90;;;;;;5014468;28;20025;-69
2022/03/12 13:55:05;;;;;;;5.10;1.98;;;10.00;92.70;;;;;;5014348;28;20049;-69
2022/03/12 13:57:35;;;;;;;3.05;1.83;;;9.80;92.90;;;;;;5014101;28;20026;-68
2022/03/12 14:00:16;;;;;;;5.55;1.98;;;9.70;92.60;;;;;;5014054;28;20053;-69
2022/03/12 14:02:54;;;;;;;8.73;2.67;;;9.70;92.90;;;;;;5013827;28;20029;-72
2022/03/12 14:05:30;;;;;;;5.35;2.05;;;9.60;93.40;;;;;;5020990;28;20108;-72